createdAt,value
2018-02-21T00:00:03.506Z,46.05
2018-02-21T00:02:29.968Z,24.35
2018-02-21T00:04:57.141Z,34.72
2018-02-21T00:07:23.651Z,31.58
2018-02-21T00:09:50.118Z,25.08
2018-02-21T00:12:16.545Z,31.62
2018-02-21T00:14:43.212Z,31.30
2018-02-21T00:17:09.633Z,45.70
2018-02-21T00:19:36.030Z,38.10
2018-02-21T00:22:02.485Z,28.73
2018-02-21T00:24:28.912Z,47.33
2018-02-21T00:26:55.333Z,31.70
2018-02-21T00:29:21.747Z,36.15
2018-02-21T00:31:48.217Z,38.35
2018-02-21T00:34:14.633Z,32.63
2018-02-21T00:36:41.819Z,54.80
2018-02-21T00:39:08.306Z,29.98
2018-02-21T00:41:34.729Z,27.83
2018-02-21T00:44:01.166Z,27.67
2018-02-21T00:46:27.607Z,46.78
2018-02-21T00:48:54.741Z,32.67
2018-02-21T00:51:21.176Z,35.83
2018-02-21T00:53:47.601Z,36.45
2018-02-21T00:56:14.036Z,50.53
2018-02-21T00:58:40.474Z,31.60
2018-02-21T01:01:06.998Z,46.40
2018-02-21T01:03:33.436Z,43.78
2018-02-21T01:05:59.897Z,27.67
2018-02-21T01:08:26.294Z,38.10
2018-02-21T01:10:52.749Z,41.28
2018-02-21T01:13:19.198Z,48.53
2018-02-21T01:15:46.410Z,42.55
2018-02-21T01:18:12.862Z,44.33
2018-02-21T01:20:39.305Z,38.13
2018-02-21T01:23:05.801Z,59.78
2018-02-21T01:25:32.272Z,27.58
2018-02-21T01:27:58.726Z,28.95
2018-02-21T01:30:25.886Z,35.08
2018-02-21T01:32:53.046Z,29.73
2018-02-21T01:35:19.498Z,34.20
2018-02-21T01:37:45.940Z,29.48
2018-02-21T01:40:12.380Z,33.25
2018-02-21T01:42:38.780Z,33.35
2018-02-21T01:45:05.948Z,37.03
2018-02-21T01:47:32.370Z,50.33
2018-02-21T01:49:58.812Z,44.25
2018-02-21T01:52:25.215Z,35.15
2018-02-21T01:54:52.366Z,43.80
2018-02-21T01:57:19.565Z,27.52
2018-02-21T01:59:46.020Z,36.88
2018-02-21T02:02:12.456Z,31.62
2018-02-21T02:04:38.907Z,43.00
2018-02-21T02:07:06.112Z,41.42
2018-02-21T02:09:32.529Z,38.08
2018-02-21T02:11:58.974Z,40.72
2018-02-21T02:14:25.433Z,35.13
2018-02-21T02:16:51.883Z,32.45
2018-02-21T02:19:18.350Z,48.55
2018-02-21T02:21:45.533Z,32.38
2018-02-21T02:24:11.979Z,48.90
2018-02-21T02:26:38.421Z,39.45
2018-02-21T02:29:04.896Z,43.30
2018-02-21T02:31:31.332Z,52.92
2018-02-21T02:33:58.524Z,45.20
2018-02-21T02:36:24.978Z,40.28
2018-02-21T02:39:04.494Z,33.15
2018-02-21T02:41:30.896Z,37.38
2018-02-21T02:43:58.101Z,34.72
2018-02-21T02:46:24.508Z,42.92
2018-02-21T02:48:50.926Z,29.08
2018-02-21T02:51:17.351Z,38.45
2018-02-21T02:53:44.546Z,39.67
2018-02-21T02:56:10.966Z,31.30
2018-02-21T02:58:37.461Z,37.75
2018-02-21T03:01:03.903Z,40.12
2018-02-21T03:03:31.130Z,36.88
2018-02-21T03:05:57.541Z,35.28
2018-02-21T03:08:23.999Z,29.70
2018-02-21T03:10:50.396Z,40.75
2018-02-21T03:13:16.859Z,49.13
2018-02-21T03:15:43.289Z,40.38
2018-02-21T03:18:09.773Z,40.58
2018-02-21T03:20:36.928Z,44.63
2018-02-21T03:23:03.364Z,31.55
2018-02-21T03:25:29.769Z,35.25
2018-02-21T03:27:56.190Z,45.97
2018-02-21T03:30:22.638Z,34.05
2018-02-21T03:32:50.533Z,41.50
2018-02-21T03:35:17.740Z,42.95
2018-02-21T03:37:44.145Z,40.38
2018-02-21T03:40:10.584Z,35.42
2018-02-21T03:42:37.020Z,33.15
2018-02-21T03:45:03.439Z,39.85
2018-02-21T03:47:29.850Z,36.38
2018-02-21T03:49:57.028Z,33.58
2018-02-21T03:52:23.450Z,31.90
2018-02-21T03:54:49.891Z,44.13
2018-02-21T03:57:16.288Z,45.33
2018-02-21T03:59:42.744Z,35.08
2018-02-21T04:02:09.157Z,35.25
2018-02-21T04:04:36.333Z,32.83
2018-02-21T04:07:02.760Z,43.35
2018-02-21T04:09:29.940Z,37.40
2018-02-21T04:11:56.381Z,42.53
2018-02-21T04:14:22.853Z,39.30
2018-02-21T04:16:50.036Z,47.38
2018-02-21T04:19:16.489Z,43.85
2018-02-21T04:21:42.936Z,39.47
2018-02-21T04:24:09.364Z,46.17
2018-02-21T04:26:35.760Z,54.40
2018-02-21T04:29:02.942Z,48.08
2018-02-21T04:31:29.344Z,43.40
2018-02-21T04:33:56.498Z,42.28
2018-02-21T04:36:23.645Z,29.73
2018-02-21T04:38:50.835Z,41.05
2018-02-21T04:41:17.329Z,29.70
2018-02-21T04:43:44.494Z,55.20
2018-02-21T04:46:11.677Z,45.88
2018-02-21T04:48:41.969Z,47.28
2018-02-21T04:51:08.437Z,54.35
2018-02-21T04:53:34.881Z,45.65
2018-02-21T04:56:16.300Z,39.60
2018-02-21T04:58:48.896Z,39.45
2018-02-21T05:01:16.124Z,36.55
2018-02-21T05:03:43.289Z,44.17
2018-02-21T05:06:10.479Z,50.63
2018-02-21T05:08:36.884Z,67.75
2018-02-21T05:11:03.360Z,50.80
2018-02-21T05:13:29.800Z,30.80
2018-02-21T05:15:56.385Z,31.60
2018-02-21T05:18:22.938Z,35.83
2018-02-21T05:20:49.378Z,26.42
2018-02-21T05:23:16.665Z,45.80
2018-02-21T05:25:43.272Z,51.92
2018-02-21T05:28:09.703Z,56.50
2018-02-21T05:30:36.154Z,48.50
2018-02-21T05:33:02.603Z,60.78
2018-02-21T05:35:29.109Z,62.83
2018-02-21T05:37:55.541Z,48.75
2018-02-21T05:40:21.982Z,67.78
2018-02-21T05:42:48.404Z,52.75
2018-02-21T05:45:14.870Z,50.35
2018-02-21T05:47:41.286Z,55.60
2018-02-21T05:50:07.762Z,57.83
2018-02-21T05:52:34.193Z,52.55
2018-02-21T05:55:00.654Z,45.00
2018-02-21T05:57:27.077Z,46.53
2018-02-21T05:59:53.580Z,51.88
2018-02-21T06:02:19.983Z,45.53
2018-02-21T06:04:47.605Z,49.60
2018-02-21T06:07:14.036Z,56.15
2018-02-21T06:09:41.242Z,31.60
2018-02-21T06:12:07.722Z,59.00
2018-02-21T06:14:34.137Z,43.33
2018-02-21T06:17:00.559Z,40.75
2018-02-21T06:19:27.213Z,49.97
2018-02-21T06:21:53.673Z,56.92
2018-02-21T06:24:20.092Z,69.03
2018-02-21T06:26:46.542Z,60.65
2018-02-21T06:29:13.024Z,67.07
2018-02-21T06:31:43.384Z,56.63
2018-02-21T06:34:09.792Z,39.83
2018-02-21T06:36:36.353Z,32.47
2018-02-21T06:39:03.276Z,30.40
2018-02-21T06:41:29.733Z,43.58
2018-02-21T06:43:56.180Z,33.50
2018-02-21T06:46:22.615Z,37.95
2018-02-21T06:48:49.025Z,43.87
2018-02-21T06:51:15.513Z,39.13
2018-02-21T06:53:41.994Z,49.17
2018-02-21T06:56:08.467Z,53.60
2018-02-21T06:58:34.980Z,44.78
2018-02-21T07:01:01.510Z,57.47
2018-02-21T07:03:27.930Z,63.83
2018-02-21T07:05:54.381Z,41.75
2018-02-21T07:08:20.856Z,60.67
2018-02-21T07:10:47.400Z,58.67
2018-02-21T07:13:13.940Z,53.75
2018-02-21T07:15:40.529Z,54.13
2018-02-21T07:18:06.964Z,50.85
2018-02-21T07:20:33.457Z,48.45
2018-02-21T07:22:59.888Z,63.75
2018-02-21T07:25:26.319Z,44.90
2018-02-21T07:27:52.744Z,44.30
2018-02-21T07:30:19.904Z,70.22
2018-02-21T07:32:46.388Z,66.32
2018-02-21T07:35:12.826Z,51.05
2018-02-21T07:37:39.297Z,54.72
2018-02-21T07:40:06.481Z,60.90
2018-02-21T07:42:32.941Z,51.30
2018-02-21T07:44:59.541Z,47.50
2018-02-21T07:47:26.003Z,40.17
2018-02-21T07:49:52.444Z,43.87
2018-02-21T07:52:18.936Z,56.10
2018-02-21T07:54:45.490Z,54.53
2018-02-21T07:57:11.942Z,59.53
2018-02-21T07:59:38.396Z,43.55
2018-02-21T08:02:04.824Z,46.15
2018-02-21T08:04:32.754Z,55.60
2018-02-21T08:07:00.286Z,44.85
2018-02-21T08:09:27.498Z,51.88
2018-02-21T08:11:55.958Z,50.40
2018-02-21T08:14:23.504Z,51.78
2018-02-21T08:16:49.953Z,58.25
2018-02-21T08:19:16.404Z,59.20
2018-02-21T08:21:42.853Z,50.30
2018-02-21T08:24:09.306Z,46.22
2018-02-21T08:26:35.776Z,46.88
2018-02-21T08:29:02.354Z,55.50
2018-02-21T08:31:28.792Z,50.63
2018-02-21T08:33:55.976Z,54.63
2018-02-21T08:36:22.425Z,50.58
2018-02-21T08:38:48.894Z,56.63
2018-02-21T08:41:15.341Z,54.45
2018-02-21T08:43:41.784Z,47.43
2018-02-21T08:46:08.222Z,49.17
2018-02-21T08:48:34.725Z,45.43
2018-02-21T08:51:01.173Z,50.60
2018-02-21T08:53:27.607Z,48.67
2018-02-21T08:55:54.114Z,50.37
2018-02-21T08:58:20.593Z,54.83
2018-02-21T09:00:47.065Z,44.37
2018-02-21T09:03:14.282Z,49.30
2018-02-21T09:05:40.754Z,48.80
2018-02-21T09:08:07.220Z,56.57
2018-02-21T09:10:33.716Z,57.17
2018-02-21T09:13:00.192Z,43.83
2018-02-21T09:15:30.642Z,52.23
2018-02-21T09:17:57.127Z,46.13
2018-02-21T09:20:23.615Z,42.77
2018-02-21T09:22:50.087Z,49.73
2018-02-21T09:25:17.272Z,44.03
2018-02-21T09:27:43.713Z,51.00
2018-02-21T09:30:10.182Z,47.27
2018-02-21T09:32:36.636Z,56.23
2018-02-21T09:35:03.848Z,55.53
2018-02-21T09:37:30.288Z,53.10
2018-02-21T09:39:56.706Z,47.43
2018-02-21T09:42:23.129Z,50.97
2018-02-21T09:44:49.557Z,53.00
2018-02-21T09:47:16.036Z,51.40
2018-02-21T09:49:42.483Z,52.40
2018-02-21T09:52:09.863Z,50.13
2018-02-21T09:54:37.073Z,50.17
2018-02-21T09:57:03.600Z,47.27
2018-02-21T09:59:30.067Z,45.10
2018-02-21T10:01:57.281Z,45.47
2018-02-21T10:04:23.755Z,49.33
2018-02-21T10:06:50.920Z,48.73
2018-02-21T10:09:18.145Z,43.93
2018-02-21T10:11:45.634Z,48.63
2018-02-21T10:14:12.130Z,58.23
2018-02-21T10:16:38.630Z,46.20
2018-02-21T10:19:05.106Z,38.00
2018-02-21T10:21:31.581Z,54.80
2018-02-21T10:23:58.088Z,51.50
2018-02-21T10:26:24.653Z,45.80
2018-02-21T10:28:51.881Z,52.43
2018-02-21T10:31:18.341Z,48.20
2018-02-21T10:33:44.834Z,42.50
2018-02-21T10:36:11.372Z,39.13
2018-02-21T10:38:37.939Z,44.83
2018-02-21T10:41:05.156Z,43.53
2018-02-21T10:43:31.658Z,39.67
2018-02-21T10:45:58.123Z,48.03
2018-02-21T10:48:25.350Z,46.00
2018-02-21T10:50:51.834Z,50.63
2018-02-21T10:53:19.577Z,44.87
2018-02-21T10:55:46.804Z,42.90
2018-02-21T10:58:13.295Z,47.57
2018-02-21T11:00:46.690Z,40.50
2018-02-21T11:03:13.301Z,48.07
2018-02-21T11:05:39.768Z,40.70
2018-02-21T11:08:07.022Z,40.97
2018-02-21T11:10:34.201Z,38.27
2018-02-21T11:13:00.686Z,35.73
2018-02-21T11:15:27.179Z,40.27
2018-02-21T11:17:53.813Z,35.03
2018-02-21T11:20:20.304Z,36.17
2018-02-21T11:22:47.191Z,36.17
2018-02-21T11:25:13.769Z,40.50
2018-02-21T11:27:40.284Z,42.27
2018-02-21T11:30:06.872Z,41.27
2018-02-21T11:32:33.432Z,38.30
2018-02-21T11:35:00.774Z,40.57
2018-02-21T11:37:27.954Z,41.07
2018-02-21T11:39:54.513Z,47.80
2018-02-21T11:42:21.000Z,39.30
2018-02-21T11:44:47.512Z,39.10
2018-02-21T11:47:13.991Z,37.50
2018-02-21T11:49:40.687Z,46.17
2018-02-21T11:52:07.230Z,36.80
2018-02-21T11:54:33.846Z,35.10
2018-02-21T11:57:01.082Z,42.10
2018-02-21T11:59:27.840Z,42.73
2018-02-21T12:01:54.371Z,38.83
2018-02-21T12:04:20.829Z,39.20
2018-02-21T12:06:48.104Z,40.63
2018-02-21T12:09:14.654Z,37.83
2018-02-21T12:11:41.198Z,39.13
2018-02-21T12:14:07.680Z,40.13
2018-02-21T12:16:34.154Z,43.23
2018-02-21T12:19:00.689Z,43.53
2018-02-21T12:21:27.222Z,37.80
2018-02-21T12:23:54.595Z,35.80
2018-02-21T12:26:21.142Z,34.97
2018-02-21T12:28:47.669Z,44.63
2018-02-21T12:31:14.218Z,38.70
2018-02-21T12:33:40.714Z,35.73
2018-02-21T12:36:07.187Z,38.07
2018-02-21T12:38:33.825Z,34.47
2018-02-21T12:41:06.433Z,41.50
2018-02-21T12:43:32.913Z,44.87
2018-02-21T12:46:00.170Z,38.63
2018-02-21T12:48:28.477Z,40.77
2018-02-21T12:50:56.005Z,42.97
2018-02-21T12:53:22.514Z,35.87
2018-02-21T12:55:49.957Z,39.53
2018-02-21T12:58:16.526Z,36.97
2018-02-21T13:00:43.833Z,37.40
2018-02-21T13:03:10.287Z,41.83
2018-02-21T13:05:36.764Z,38.47
2018-02-21T13:08:03.255Z,38.90
2018-02-21T13:10:30.553Z,33.27
2018-02-21T13:12:57.041Z,32.90
2018-02-21T13:15:23.551Z,33.57
2018-02-21T13:17:50.053Z,40.07
2018-02-21T13:20:16.546Z,34.33
2018-02-21T13:22:42.998Z,32.97
2018-02-21T13:25:10.262Z,37.27
2018-02-21T13:27:36.809Z,32.37
2018-02-21T13:30:04.015Z,34.57
2018-02-21T13:32:30.448Z,41.87
2018-02-21T13:34:57.052Z,35.03
2018-02-21T13:37:23.606Z,32.93
2018-02-21T13:39:50.101Z,38.33
2018-02-21T13:42:17.332Z,35.20
2018-02-21T13:44:43.800Z,32.37
2018-02-21T13:47:11.037Z,29.83
2018-02-21T13:49:37.605Z,34.10
2018-02-21T13:52:04.061Z,30.90
2018-02-21T13:54:30.530Z,27.77
2018-02-21T13:56:57.808Z,35.57
2018-02-21T13:59:24.420Z,33.40
2018-02-21T14:01:50.894Z,30.30
2018-02-21T14:04:17.383Z,38.33
2018-02-21T14:06:43.856Z,34.13
2018-02-21T14:09:11.057Z,31.30
2018-02-21T14:11:37.535Z,30.20
2018-02-21T14:14:04.011Z,36.83
2018-02-21T14:16:30.565Z,31.73
2018-02-21T14:18:57.068Z,27.20
2018-02-21T14:21:23.605Z,32.43
2018-02-21T14:23:51.125Z,29.57
2018-02-21T14:26:17.601Z,36.87
2018-02-21T14:28:44.062Z,33.10
2018-02-21T14:31:10.497Z,32.50
2018-02-21T14:33:36.917Z,29.03
2018-02-21T14:36:03.390Z,28.60
2018-02-21T14:38:29.906Z,33.73
2018-02-21T14:40:56.380Z,33.27
2018-02-21T14:43:22.803Z,33.57
2018-02-21T14:45:49.240Z,29.77
2018-02-21T14:48:16.441Z,32.27
2018-02-21T14:50:42.889Z,29.47
2018-02-21T14:53:09.343Z,27.27
2018-02-21T14:55:35.788Z,33.43
2018-02-21T14:58:02.210Z,33.73
2018-02-21T15:00:28.670Z,39.00
2018-02-21T15:02:55.188Z,29.70
2018-02-21T15:05:21.673Z,37.90
2018-02-21T15:07:48.125Z,26.03
2018-02-21T15:10:14.621Z,34.07
2018-02-21T15:12:45.745Z,29.37
2018-02-21T15:15:12.209Z,30.80
2018-02-21T15:17:38.714Z,23.73
2018-02-21T15:20:05.147Z,29.57
2018-02-21T15:22:31.618Z,22.93
2018-02-21T15:24:58.815Z,25.63
2018-02-21T15:27:25.263Z,37.00
2018-02-21T15:29:51.723Z,35.90
2018-02-21T15:32:19.001Z,22.90
2018-02-21T15:34:45.461Z,22.97
2018-02-21T15:37:11.967Z,29.03
2018-02-21T15:39:39.155Z,28.67
2018-02-21T15:42:05.609Z,33.33
2018-02-21T15:44:32.026Z,31.03
2018-02-21T15:46:58.497Z,24.80
2018-02-21T15:49:25.013Z,27.00
2018-02-21T15:51:51.455Z,32.63
2018-02-21T15:54:18.019Z,24.60
2018-02-21T15:56:45.225Z,26.17
2018-02-21T15:59:29.926Z,23.40
2018-02-21T16:02:10.465Z,30.30
2018-02-21T16:04:37.013Z,20.33
2018-02-21T16:07:04.459Z,23.67
2018-02-21T16:09:31.004Z,20.03
2018-02-21T16:12:00.338Z,27.43
2018-02-21T16:14:28.371Z,21.73
2018-02-21T16:16:55.853Z,26.83
2018-02-21T16:19:23.062Z,26.27
2018-02-21T16:21:53.381Z,20.47
2018-02-21T16:24:19.842Z,25.63
2018-02-21T16:26:47.731Z,28.80
2018-02-21T16:29:15.270Z,11.47
2018-02-21T16:31:41.864Z,26.93
2018-02-21T16:34:08.546Z,30.90
2018-02-21T16:36:35.298Z,14.50
2018-02-21T16:39:01.738Z,13.87
2018-02-21T16:41:28.205Z,20.00
2018-02-21T16:43:54.642Z,18.80
2018-02-21T16:46:21.151Z,20.87
2018-02-21T16:48:47.665Z,19.10
2018-02-21T16:51:14.170Z,25.57
2018-02-21T16:53:41.662Z,24.70
2018-02-21T16:56:08.194Z,30.77
2018-02-21T16:58:35.451Z,19.37
2018-02-21T17:01:02.676Z,24.10
2018-02-21T17:03:29.116Z,25.77
2018-02-21T17:05:55.545Z,21.73
2018-02-21T17:08:21.957Z,23.55
2018-02-21T17:10:48.400Z,29.15
2018-02-21T17:13:14.858Z,28.73
2018-02-21T17:15:41.349Z,23.70
2018-02-21T17:18:07.803Z,22.90
2018-02-21T17:20:34.277Z,21.95
2018-02-21T17:23:00.753Z,26.10
2018-02-21T17:25:27.917Z,23.95
2018-02-21T17:27:54.385Z,21.98
2018-02-21T17:30:21.518Z,28.65
2018-02-21T17:32:48.086Z,31.27
2018-02-21T17:35:14.544Z,32.67
2018-02-21T17:37:41.735Z,24.63
2018-02-21T17:40:08.170Z,23.90
2018-02-21T17:42:34.612Z,22.90
2018-02-21T17:45:04.957Z,24.90
2018-02-21T17:47:31.409Z,25.10
2018-02-21T17:49:57.834Z,30.73
2018-02-21T17:52:24.281Z,24.10
2018-02-21T17:54:50.746Z,22.65
2018-02-21T17:57:17.201Z,21.33
2018-02-21T17:59:47.462Z,24.50
2018-02-21T18:02:13.934Z,30.30
2018-02-21T18:04:41.385Z,34.13
2018-02-21T18:07:07.866Z,33.08
2018-02-21T18:09:34.341Z,29.70
2018-02-21T18:12:00.776Z,30.02
2018-02-21T18:14:28.114Z,30.45
2018-02-21T18:16:54.602Z,28.77
2018-02-21T18:19:28.205Z,27.40
2018-02-21T18:21:54.652Z,30.83
2018-02-21T18:24:21.090Z,25.62
2018-02-21T18:26:47.570Z,31.83
2018-02-21T18:29:14.011Z,29.95
2018-02-21T18:31:40.574Z,28.35
2018-02-21T18:34:07.855Z,28.58
2018-02-21T18:36:34.625Z,29.50
2018-02-21T18:39:01.158Z,30.10
2018-02-21T18:41:27.578Z,33.03
2018-02-21T18:43:54.135Z,31.08
2018-02-21T18:46:20.597Z,30.40
2018-02-21T18:48:47.965Z,28.30
2018-02-21T18:51:15.220Z,31.83
2018-02-21T18:53:42.532Z,31.17
2018-02-21T18:56:08.970Z,28.12
2018-02-21T18:58:35.558Z,33.55
2018-02-21T19:01:05.198Z,36.40
2018-02-21T19:03:31.709Z,27.17
2018-02-21T19:05:58.174Z,30.83
2018-02-21T19:08:24.713Z,29.30
2018-02-21T19:10:51.423Z,34.53
2018-02-21T19:13:17.945Z,32.17
2018-02-21T19:15:44.413Z,37.08
2018-02-21T19:18:10.902Z,35.53
2018-02-21T19:20:37.337Z,36.33
2018-02-21T19:23:04.546Z,31.95
2018-02-21T19:25:30.968Z,35.35
2018-02-21T19:27:57.526Z,36.13
2018-02-21T19:30:23.936Z,33.45
2018-02-21T19:32:50.625Z,33.38
2018-02-21T19:35:17.337Z,27.67
2018-02-21T19:37:43.773Z,30.37
2018-02-21T19:40:10.199Z,38.47
2018-02-21T19:42:36.629Z,31.25
2018-02-21T19:45:03.098Z,33.05
2018-02-21T19:47:29.576Z,33.90
2018-02-21T19:49:56.044Z,39.08
2018-02-21T19:52:22.544Z,32.28
2018-02-21T19:54:48.953Z,32.42
2018-02-21T19:57:16.113Z,33.33
2018-02-21T19:59:42.569Z,37.80
2018-02-21T20:02:09.029Z,41.22
2018-02-21T20:04:35.454Z,39.13
2018-02-21T20:07:01.878Z,45.60
2018-02-21T20:09:28.292Z,37.95
2018-02-21T20:11:54.785Z,34.63
2018-02-21T20:14:21.996Z,30.10
2018-02-21T20:16:48.436Z,35.65
2018-02-21T20:19:14.893Z,40.15
2018-02-21T20:21:41.330Z,37.85
2018-02-21T20:24:11.601Z,38.45
2018-02-21T20:26:39.822Z,37.17
2018-02-21T20:29:06.277Z,28.62
2018-02-21T20:31:32.688Z,35.15
2018-02-21T20:33:59.144Z,37.42
2018-02-21T20:36:29.536Z,38.45
2018-02-21T20:38:59.810Z,36.92
2018-02-21T20:41:26.962Z,42.13
2018-02-21T20:43:53.418Z,38.28
2018-02-21T20:46:19.849Z,33.97
2018-02-21T20:48:46.312Z,35.83
2018-02-21T20:51:16.716Z,35.88
2018-02-21T20:53:47.706Z,40.47
2018-02-21T20:56:14.151Z,35.50
2018-02-21T20:58:40.588Z,31.62
2018-02-21T21:01:07.033Z,34.92
2018-02-21T21:03:33.473Z,34.97
2018-02-21T21:06:00.789Z,34.42
2018-02-21T21:08:27.243Z,32.95
2018-02-21T21:10:53.650Z,32.92
2018-02-21T21:13:20.097Z,34.22
2018-02-21T21:15:46.540Z,39.70
2018-02-21T21:18:13.002Z,44.65
2018-02-21T21:20:40.197Z,30.20
2018-02-21T21:23:06.637Z,31.80
2018-02-21T21:25:36.974Z,25.77
2018-02-21T21:28:03.434Z,37.65
2018-02-21T21:30:30.621Z,31.80
2018-02-21T21:32:57.087Z,33.47
2018-02-21T21:35:23.505Z,33.45
2018-02-21T21:37:50.064Z,39.22
2018-02-21T21:40:17.353Z,40.88
2018-02-21T21:42:44.577Z,35.50
2018-02-21T21:45:11.787Z,34.08
2018-02-21T21:47:38.360Z,36.03
2018-02-21T21:50:04.906Z,29.42
2018-02-21T21:52:31.317Z,33.25
2018-02-21T21:54:57.770Z,33.55
2018-02-21T21:57:24.234Z,33.00
2018-02-21T21:59:50.727Z,34.45
2018-02-21T22:02:17.149Z,38.75
2018-02-21T22:04:43.609Z,41.17
2018-02-21T22:07:10.038Z,37.58
2018-02-21T22:09:36.475Z,33.65
2018-02-21T22:12:03.698Z,32.20
2018-02-21T22:14:30.187Z,33.90
2018-02-21T22:16:57.433Z,26.80
2018-02-21T22:19:24.636Z,33.20
2018-02-21T22:21:51.060Z,32.50
2018-02-21T22:24:17.577Z,35.15
2018-02-21T22:26:44.783Z,27.90
2018-02-21T22:32:09.363Z,36.72
2018-02-21T22:34:36.001Z,27.80
2018-02-21T22:37:02.550Z,34.53
2018-02-21T22:39:29.447Z,34.63
2018-02-21T22:41:56.789Z,29.63
2018-02-21T22:44:23.326Z,43.70
2018-02-21T22:46:54.621Z,28.42
2018-02-21T22:49:21.154Z,31.48
2018-02-21T22:51:47.686Z,30.25
2018-02-21T22:54:14.499Z,29.27
2018-02-21T22:56:41.770Z,31.27
2018-02-21T22:59:08.310Z,28.35
2018-02-21T23:01:34.971Z,32.78
2018-02-21T23:04:01.544Z,29.85
2018-02-21T23:06:28.185Z,37.53
2018-02-21T23:08:54.783Z,25.70
2018-02-21T23:11:21.319Z,28.23
2018-02-21T23:13:48.650Z,28.17
2018-02-21T23:16:15.280Z,29.70
2018-02-21T23:18:41.954Z,28.30
2018-02-21T23:21:08.609Z,31.65
2018-02-21T23:23:35.207Z,30.27
2018-02-21T23:26:01.755Z,33.35
2018-02-21T23:28:28.306Z,32.30
2018-02-21T23:30:54.952Z,33.75
2018-02-21T23:33:21.528Z,31.77
2018-02-21T23:35:48.876Z,24.35
2018-02-21T23:38:16.218Z,29.67
2018-02-21T23:40:42.809Z,28.83
2018-02-21T23:43:09.330Z,31.83
2018-02-21T23:45:35.922Z,24.33
2018-02-21T23:48:02.583Z,32.65
2018-02-21T23:50:29.134Z,29.12
2018-02-21T23:52:56.534Z,28.80
2018-02-21T23:55:23.084Z,29.15
2018-02-21T23:57:49.620Z,29.58
